createdAt,value
2022-12-25T00:01:10.216Z,15.23
2022-12-25T00:03:37.705Z,15.80
2022-12-25T00:06:05.421Z,15.70
2022-12-25T00:08:33.005Z,15.80
2022-12-25T00:11:03.850Z,16.20
2022-12-25T00:13:31.735Z,14.30
2022-12-25T00:15:59.118Z,15.30
2022-12-25T00:18:26.502Z,15.30
2022-12-25T00:20:57.463Z,15.97
2022-12-25T00:23:24.792Z,16.37
2022-12-25T00:25:52.531Z,17.70
2022-12-25T00:28:23.040Z,16.43
2022-12-25T00:30:50.432Z,16.33
2022-12-25T00:33:17.875Z,17.00
2022-12-25T00:35:45.156Z,16.60
2022-12-25T00:38:12.460Z,17.63
2022-12-25T00:40:43.641Z,17.43
2022-12-25T00:43:11.210Z,16.33
2022-12-25T00:45:39.778Z,17.40
2022-12-25T00:48:07.043Z,15.87
2022-12-25T00:50:34.169Z,15.80
2022-12-25T00:53:01.522Z,18.37
2022-12-25T00:55:30.520Z,17.40
2022-12-25T00:57:58.958Z,18.03
2022-12-25T01:00:26.208Z,18.13
2022-12-25T01:02:54.953Z,16.43
2022-12-25T01:05:22.240Z,16.40
2022-12-25T01:07:49.572Z,16.87
2022-12-25T01:10:16.900Z,18.20
2022-12-25T01:12:44.179Z,16.17
2022-12-25T01:15:12.718Z,19.17
2022-12-25T01:17:40.183Z,17.30
2022-12-25T01:20:10.530Z,17.90
2022-12-25T01:22:37.838Z,17.43
2022-12-25T01:25:05.594Z,18.50
2022-12-25T01:27:33.211Z,17.43
2022-12-25T01:30:00.564Z,18.77
2022-12-25T01:32:28.224Z,17.70
2022-12-25T01:34:56.438Z,19.07
2022-12-25T01:37:25.609Z,16.93
2022-12-25T01:39:52.796Z,18.57
2022-12-25T01:42:21.913Z,19.87
2022-12-25T01:45:39.668Z,19.30
2022-12-25T01:48:11.548Z,17.83
2022-12-25T01:50:42.552Z,18.30
2022-12-25T01:53:11.853Z,19.47
2022-12-25T01:55:41.784Z,18.90
2022-12-25T01:58:09.949Z,21.20
2022-12-25T02:00:37.243Z,19.43
2022-12-25T02:03:05.417Z,19.80
2022-12-25T02:05:35.025Z,19.40
2022-12-25T02:08:07.667Z,19.07
2022-12-25T02:10:36.582Z,20.03
2022-12-25T02:13:03.823Z,21.80
2022-12-25T02:15:40.262Z,20.17
2022-12-25T02:18:15.639Z,20.47
2022-12-25T02:21:06.341Z,21.90
2022-12-25T02:23:46.421Z,21.17
2022-12-25T02:26:44.636Z,20.00
2022-12-25T02:29:22.984Z,21.77
2022-12-25T02:31:57.913Z,21.17
2022-12-25T02:34:35.428Z,20.63
2022-12-25T02:37:07.539Z,19.87
2022-12-25T02:39:50.932Z,23.77
2022-12-25T02:42:24.153Z,21.40
2022-12-25T02:44:53.221Z,22.83
2022-12-25T02:47:22.425Z,20.30
2022-12-25T02:49:51.392Z,20.77
2022-12-25T02:52:21.101Z,23.07
2022-12-25T02:54:54.481Z,23.40
2022-12-25T02:57:27.570Z,21.50
2022-12-25T03:00:00.036Z,23.00
2022-12-25T03:02:30.881Z,23.20
2022-12-25T03:05:01.635Z,21.67
2022-12-25T03:07:30.728Z,23.90
2022-12-25T03:10:03.589Z,22.00
2022-12-25T03:12:46.273Z,22.33
2022-12-25T03:15:16.298Z,22.23
2022-12-25T03:17:43.627Z,22.63
2022-12-25T03:20:11.493Z,21.30
2022-12-25T03:22:42.382Z,20.70
2022-12-25T03:25:10.287Z,22.90
2022-12-25T03:27:39.354Z,22.20
2022-12-25T03:30:08.261Z,20.67
2022-12-25T03:32:42.759Z,23.43
2022-12-25T03:35:18.956Z,21.57
2022-12-25T03:38:04.236Z,22.73
2022-12-25T03:40:37.008Z,22.87
2022-12-25T03:43:17.215Z,21.50
2022-12-25T03:45:51.665Z,22.90
2022-12-25T03:48:20.886Z,23.23
2022-12-25T03:50:53.950Z,24.00
2022-12-25T03:53:27.253Z,22.40
2022-12-25T03:55:56.268Z,24.03
2022-12-25T03:58:25.201Z,21.23
2022-12-25T04:00:52.744Z,24.20
2022-12-25T04:03:21.521Z,23.30
2022-12-25T04:05:48.885Z,23.70
2022-12-25T04:08:16.065Z,21.50
2022-12-25T04:10:44.515Z,26.10
2022-12-25T04:13:11.766Z,21.60
2022-12-25T04:15:39.044Z,21.03
2022-12-25T04:18:06.334Z,23.40
2022-12-25T04:20:34.950Z,23.60
2022-12-25T04:23:02.260Z,23.53
2022-12-25T04:25:29.540Z,21.60
2022-12-25T04:28:01.286Z,22.20
2022-12-25T04:30:28.610Z,24.63
2022-12-25T04:32:57.918Z,23.33
2022-12-25T04:35:25.101Z,22.70
2022-12-25T04:37:53.708Z,23.00
2022-12-25T04:40:21.097Z,24.07
2022-12-25T04:42:50.071Z,18.93
2022-12-25T04:45:17.853Z,21.93
2022-12-25T04:47:45.068Z,22.57
2022-12-25T04:50:12.352Z,19.60
2022-12-25T04:52:40.792Z,21.13
2022-12-25T04:55:10.698Z,22.10
2022-12-25T04:57:38.013Z,22.20
2022-12-25T05:00:06.865Z,22.90
2022-12-25T05:02:34.685Z,20.07
2022-12-25T05:05:02.212Z,23.23
2022-12-25T05:07:29.421Z,20.63
2022-12-25T05:09:56.836Z,20.33
2022-12-25T05:12:25.487Z,22.10
2022-12-25T05:14:52.735Z,21.47
2022-12-25T05:17:20.017Z,20.20
2022-12-25T05:19:47.320Z,21.13
2022-12-25T05:22:14.669Z,22.00
2022-12-25T05:24:41.920Z,21.00
2022-12-25T05:27:09.110Z,20.17
2022-12-25T05:29:37.693Z,19.53
2022-12-25T05:32:05.265Z,20.80
2022-12-25T05:34:32.718Z,20.53
2022-12-25T05:36:59.920Z,19.57
2022-12-25T05:39:27.221Z,18.37
2022-12-25T05:41:54.493Z,20.80
2022-12-25T05:44:21.729Z,19.53
2022-12-25T05:46:50.311Z,20.70
2022-12-25T05:49:17.522Z,19.70
2022-12-25T05:51:44.863Z,17.80
2022-12-25T05:54:12.181Z,17.60
2022-12-25T05:56:39.422Z,18.93
2022-12-25T05:59:06.749Z,19.60
2022-12-25T06:01:34.120Z,17.53
2022-12-25T06:04:05.754Z,19.13
2022-12-25T06:06:37.629Z,17.37
2022-12-25T06:09:04.832Z,17.33
2022-12-25T06:11:32.196Z,17.50
2022-12-25T06:13:59.460Z,18.40
2022-12-25T06:16:26.734Z,18.17
2022-12-25T06:18:54.017Z,16.43
2022-12-25T06:21:22.894Z,16.67
2022-12-25T06:23:50.288Z,16.17
2022-12-25T06:26:19.313Z,15.47
2022-12-25T06:28:47.284Z,15.47
2022-12-25T06:31:17.102Z,16.13
2022-12-25T06:33:45.006Z,16.77
2022-12-25T06:36:14.394Z,16.17
2022-12-25T06:38:43.225Z,14.70
2022-12-25T06:41:12.029Z,15.10
2022-12-25T06:43:39.372Z,13.40
2022-12-25T06:46:09.193Z,15.60
2022-12-25T06:48:37.813Z,14.10
2022-12-25T06:51:06.309Z,13.33
2022-12-25T06:53:39.703Z,12.70
2022-12-25T06:56:10.722Z,13.60
2022-12-25T06:58:37.959Z,15.10
2022-12-25T07:01:07.343Z,13.67
2022-12-25T07:03:34.572Z,14.10
2022-12-25T07:06:01.902Z,14.30
2022-12-25T07:08:29.105Z,12.87
2022-12-25T07:10:56.369Z,12.97
2022-12-25T07:13:26.208Z,14.03
2022-12-25T07:15:55.703Z,13.33
2022-12-25T07:18:23.059Z,12.20
2022-12-25T07:20:50.339Z,13.27
2022-12-25T07:23:17.561Z,11.77
2022-12-25T07:25:53.509Z,57.93
2022-12-25T07:28:20.859Z,13.50
2022-12-25T07:30:49.512Z,12.27
2022-12-25T07:33:17.083Z,13.23
2022-12-25T07:35:44.437Z,12.00
2022-12-25T07:38:11.952Z,12.30
2022-12-25T07:40:39.175Z,12.43
2022-12-25T07:43:06.488Z,12.07
2022-12-25T07:45:34.296Z,13.23
2022-12-25T07:48:05.858Z,11.33
2022-12-25T07:50:34.866Z,11.90
2022-12-25T07:53:02.088Z,10.23
2022-12-25T07:55:29.438Z,10.77
2022-12-25T07:57:56.598Z,10.83
2022-12-25T08:00:23.898Z,12.10
2022-12-25T08:02:51.271Z,11.93
2022-12-25T08:05:20.019Z,10.80
2022-12-25T08:07:49.982Z,10.03
2022-12-25T08:10:21.374Z,11.10
2022-12-25T08:12:48.605Z,11.77
2022-12-25T08:15:16.007Z,11.70
2022-12-25T08:17:43.244Z,11.93
2022-12-25T08:20:11.136Z,12.27
2022-12-25T08:22:39.688Z,11.23
2022-12-25T08:25:07.710Z,11.10
2022-12-25T08:27:35.429Z,11.63
2022-12-25T08:30:03.016Z,12.00
2022-12-25T08:32:32.126Z,10.87
2022-12-25T08:34:59.646Z,11.43
2022-12-25T08:37:29.343Z,11.27
2022-12-25T08:39:58.133Z,10.50
2022-12-25T08:42:25.331Z,10.40
2022-12-25T08:44:52.604Z,11.53
2022-12-25T08:47:19.820Z,10.90
2022-12-25T08:49:47.097Z,11.10
2022-12-25T08:52:14.592Z,10.57
2022-12-25T08:54:41.899Z,14.00
2022-12-25T08:57:10.835Z,11.20
2022-12-25T08:59:38.309Z,10.13
2022-12-25T09:02:05.715Z,10.57
2022-12-25T09:04:33.046Z,10.50
2022-12-25T09:07:00.188Z,10.00
2022-12-25T09:09:27.725Z,10.50
2022-12-25T09:11:54.966Z,10.17
2022-12-25T09:14:23.568Z,9.63
2022-12-25T09:16:50.851Z,10.23
2022-12-25T09:19:18.189Z,11.80
2022-12-25T09:21:45.488Z,10.67
2022-12-25T09:24:12.845Z,27.97
2022-12-25T09:26:40.183Z,9.90
2022-12-25T09:29:07.467Z,10.47
2022-12-25T09:31:36.060Z,10.93
2022-12-25T09:34:03.340Z,10.90
2022-12-25T09:36:30.651Z,10.03
2022-12-25T09:38:57.937Z,9.97
2022-12-25T09:41:30.572Z,10.30
2022-12-25T09:44:03.720Z,9.33
2022-12-25T09:46:41.844Z,31.87
2022-12-25T09:49:20.026Z,10.53
2022-12-25T09:51:52.343Z,10.83
2022-12-25T09:54:24.235Z,10.87
2022-12-25T09:56:52.098Z,9.97
2022-12-25T09:59:24.516Z,9.97
2022-12-25T10:02:26.656Z,9.60
2022-12-25T10:05:08.081Z,9.40
2022-12-25T10:07:43.907Z,8.97
2022-12-25T10:10:28.626Z,10.50
2022-12-25T10:13:06.824Z,10.70
2022-12-25T10:15:45.079Z,10.80
2022-12-25T10:18:36.972Z,10.93
2022-12-25T10:21:11.070Z,10.70
2022-12-25T10:23:45.518Z,12.37
2022-12-25T10:26:16.079Z,9.90
2022-12-25T10:28:45.342Z,10.13
2022-12-25T10:31:20.261Z,9.33
2022-12-25T10:33:51.013Z,9.60
2022-12-25T10:36:20.618Z,9.63
2022-12-25T10:38:48.280Z,10.00
2022-12-25T10:41:26.122Z,10.37
2022-12-25T10:43:55.106Z,12.30
2022-12-25T10:46:24.466Z,10.30
2022-12-25T10:48:55.973Z,10.50
2022-12-25T10:51:29.337Z,10.10
2022-12-25T10:53:56.839Z,9.50
2022-12-25T10:56:24.197Z,10.60
2022-12-25T10:58:51.452Z,10.10
2022-12-25T11:01:18.831Z,10.43
2022-12-25T11:03:52.047Z,10.90
2022-12-25T11:06:24.808Z,9.80
2022-12-25T11:08:55.030Z,11.87
2022-12-25T11:11:22.899Z,10.37
2022-12-25T11:13:52.579Z,10.70
2022-12-25T11:16:28.857Z,10.43
2022-12-25T11:18:56.576Z,11.50
2022-12-25T11:21:27.075Z,9.10
2022-12-25T11:23:58.861Z,9.73
2022-12-25T11:26:27.926Z,10.20
2022-12-25T11:28:56.152Z,22.07
2022-12-25T11:31:32.451Z,14.73
2022-12-25T11:34:05.368Z,10.97
2022-12-25T11:36:43.305Z,10.27
2022-12-25T11:39:19.944Z,10.50
2022-12-25T11:41:48.356Z,11.37
2022-12-25T11:44:27.803Z,10.83
2022-12-25T11:46:56.235Z,11.80
2022-12-25T11:49:24.149Z,11.37
2022-12-25T11:51:57.065Z,10.70
2022-12-25T11:54:27.862Z,12.03
2022-12-25T11:56:57.550Z,12.53
2022-12-25T11:59:29.408Z,10.30
2022-12-25T12:02:01.749Z,11.20
2022-12-25T12:04:42.229Z,10.67
2022-12-25T12:07:21.904Z,11.07
2022-12-25T12:09:58.114Z,8.90
2022-12-25T12:12:35.404Z,9.30
2022-12-25T12:15:12.384Z,9.80
2022-12-25T12:17:39.766Z,10.43
2022-12-25T12:20:26.741Z,10.43
2022-12-25T12:22:55.811Z,9.70
2022-12-25T12:25:23.377Z,9.90
2022-12-25T12:27:56.302Z,9.73
2022-12-25T12:30:29.016Z,11.80
2022-12-25T12:32:58.648Z,13.90
2022-12-25T12:35:28.779Z,10.27
2022-12-25T12:38:02.261Z,11.07
2022-12-25T12:40:32.935Z,10.63
2022-12-25T12:43:01.361Z,10.93
2022-12-25T12:45:32.315Z,10.10
2022-12-25T12:47:59.768Z,10.30
2022-12-25T12:50:30.954Z,9.70
2022-12-25T12:53:01.237Z,11.07
2022-12-25T12:55:30.771Z,11.43
2022-12-25T12:57:59.573Z,10.60
2022-12-25T13:00:35.734Z,11.47
2022-12-25T13:03:25.220Z,10.13
2022-12-25T13:06:00.789Z,10.30
2022-12-25T13:08:43.238Z,11.73
2022-12-25T13:11:17.573Z,10.40
2022-12-25T13:13:46.940Z,10.87
2022-12-25T13:16:21.769Z,11.77
2022-12-25T13:18:51.338Z,10.70
2022-12-25T13:21:22.567Z,11.50
2022-12-25T13:23:56.512Z,11.53
2022-12-25T13:26:23.856Z,10.40
2022-12-25T13:28:51.025Z,11.17
2022-12-25T13:31:20.555Z,11.27
2022-12-25T13:33:55.252Z,11.60
2022-12-25T13:36:22.642Z,11.57
2022-12-25T13:38:53.884Z,12.53
2022-12-25T13:41:24.069Z,13.20
2022-12-25T13:43:51.454Z,12.97
2022-12-25T13:46:26.320Z,13.40
2022-12-25T13:48:57.772Z,11.90
2022-12-25T13:51:25.039Z,12.90
2022-12-25T13:54:03.212Z,12.03
2022-12-25T13:56:31.315Z,12.60
2022-12-25T13:58:58.729Z,12.40
2022-12-25T14:01:27.819Z,12.57
2022-12-25T14:03:55.416Z,11.97
2022-12-25T14:06:26.276Z,12.23
2022-12-25T14:08:55.656Z,13.00
2022-12-25T14:11:26.967Z,12.90
2022-12-25T14:13:57.493Z,11.27
2022-12-25T14:16:25.640Z,12.17
2022-12-25T14:18:55.430Z,11.70
2022-12-25T14:21:27.732Z,13.50
2022-12-25T14:23:55.326Z,12.47
2022-12-25T14:26:26.040Z,12.40
2022-12-25T14:28:55.181Z,12.17
2022-12-25T14:31:24.455Z,13.87
2022-12-25T14:33:52.346Z,14.37
2022-12-25T14:36:19.991Z,13.60
2022-12-25T14:38:57.057Z,13.47
2022-12-25T14:41:29.789Z,17.07
2022-12-25T14:43:57.157Z,17.23
2022-12-25T14:46:25.825Z,13.63
2022-12-25T14:48:59.527Z,14.77
2022-12-25T14:51:27.826Z,14.70
2022-12-25T14:53:56.844Z,14.63
2022-12-25T14:56:27.337Z,15.07
2022-12-25T14:58:56.940Z,15.67
2022-12-25T15:01:29.370Z,15.83
2022-12-25T15:04:06.480Z,16.07
2022-12-25T15:06:33.817Z,21.63
2022-12-25T15:09:03.216Z,20.40
2022-12-25T15:11:32.431Z,18.00
2022-12-25T15:13:59.774Z,18.23
2022-12-25T15:16:29.456Z,19.70
2022-12-25T15:18:57.166Z,22.77
2022-12-25T15:21:27.160Z,23.93
2022-12-25T15:23:55.612Z,23.27
2022-12-25T15:26:23.115Z,21.10
2022-12-25T15:28:52.561Z,19.27
2022-12-25T15:31:23.404Z,19.37
2022-12-25T15:33:50.824Z,18.47
2022-12-25T15:36:18.386Z,18.70
2022-12-25T15:38:45.965Z,17.70
2022-12-25T15:41:14.699Z,17.70
2022-12-25T15:43:41.970Z,17.40
2022-12-25T15:46:10.681Z,35.00
2022-12-25T15:48:38.049Z,19.90
2022-12-25T15:51:05.656Z,17.77
2022-12-25T15:53:33.017Z,18.97
2022-12-25T15:56:00.197Z,16.73
2022-12-25T15:58:27.555Z,18.10
2022-12-25T16:00:54.827Z,20.87
2022-12-25T16:03:23.479Z,21.67
2022-12-25T16:05:50.762Z,24.03
2022-12-25T16:08:18.037Z,23.77
2022-12-25T16:10:45.335Z,37.87
2022-12-25T16:13:12.751Z,35.17
2022-12-25T16:15:40.774Z,31.33
2022-12-25T16:18:10.300Z,28.37
2022-12-25T16:20:38.961Z,30.80
2022-12-25T16:23:06.303Z,28.57
2022-12-25T16:25:33.520Z,26.40
2022-12-25T16:28:00.891Z,24.00
2022-12-25T16:30:28.070Z,27.83
2022-12-25T16:32:55.351Z,24.93
2022-12-25T16:35:22.594Z,31.57
2022-12-25T16:37:51.308Z,26.33
2022-12-25T16:40:18.520Z,23.17
2022-12-25T16:42:46.054Z,23.27
2022-12-25T16:45:13.905Z,28.50
2022-12-25T16:47:41.390Z,26.90
2022-12-25T16:50:09.439Z,23.50
2022-12-25T16:52:36.638Z,27.47
2022-12-25T16:55:06.077Z,22.83
2022-12-25T16:57:33.474Z,25.00
2022-12-25T17:00:00.799Z,34.80
2022-12-25T17:02:28.265Z,38.90
2022-12-25T17:04:55.660Z,39.83
2022-12-25T17:07:23.075Z,50.33
2022-12-25T17:09:50.370Z,34.30
2022-12-25T17:12:19.057Z,35.70
2022-12-25T17:14:46.313Z,29.60
2022-12-25T17:17:13.896Z,29.83
2022-12-25T17:19:41.715Z,36.73
2022-12-25T17:22:08.978Z,24.70
2022-12-25T17:24:36.568Z,23.23
2022-12-25T17:27:04.021Z,21.30
2022-12-25T17:29:32.617Z,21.60
2022-12-25T17:31:59.945Z,21.97
2022-12-25T17:34:27.375Z,21.50
2022-12-25T17:36:54.591Z,23.30
2022-12-25T17:39:21.792Z,21.50
2022-12-25T17:41:49.469Z,21.23
2022-12-25T17:44:16.773Z,21.70
2022-12-25T17:46:45.443Z,22.47
2022-12-25T17:49:15.346Z,25.70
2022-12-25T17:51:42.624Z,24.07
2022-12-25T17:54:10.336Z,26.10
2022-12-25T17:56:38.188Z,37.83
2022-12-25T17:59:06.771Z,24.60
2022-12-25T18:01:36.021Z,23.30
2022-12-25T18:04:06.507Z,23.53
2022-12-25T18:06:36.094Z,23.20
2022-12-25T18:09:04.130Z,22.17
2022-12-25T18:11:31.380Z,22.70
2022-12-25T18:14:01.519Z,22.37
2022-12-25T18:16:32.110Z,22.77
2022-12-25T18:18:59.704Z,21.60
2022-12-25T18:21:29.031Z,21.20
2022-12-25T18:23:56.658Z,22.20
2022-12-25T18:26:24.194Z,21.37
2022-12-25T18:28:51.449Z,22.20
2022-12-25T18:31:21.944Z,23.60
2022-12-25T18:33:49.552Z,22.47
2022-12-25T18:36:19.148Z,22.60
2022-12-25T18:38:48.627Z,20.97
2022-12-25T18:41:16.224Z,24.63
2022-12-25T18:43:52.748Z,26.80
2022-12-25T18:46:22.711Z,30.47
2022-12-25T18:48:50.052Z,24.90
2022-12-25T18:51:17.519Z,24.30
2022-12-25T18:53:44.808Z,28.40
2022-12-25T18:56:15.738Z,23.90
2022-12-25T18:58:43.571Z,25.50
2022-12-25T19:01:13.185Z,24.77
2022-12-25T19:03:41.096Z,24.97
2022-12-25T19:06:08.856Z,26.83
2022-12-25T19:08:36.199Z,26.20
2022-12-25T19:11:07.563Z,29.77
2022-12-25T19:13:36.239Z,27.80
2022-12-25T19:16:04.947Z,29.27
2022-12-25T19:18:32.389Z,25.27
2022-12-25T19:21:01.450Z,23.37
2022-12-25T19:23:28.720Z,23.60
2022-12-25T19:25:55.975Z,22.20
2022-12-25T19:28:23.294Z,22.90
2022-12-25T19:30:52.272Z,23.83
2022-12-25T19:33:19.636Z,28.57
2022-12-25T19:35:47.968Z,25.67
2022-12-25T19:38:15.631Z,36.10
2022-12-25T19:40:43.268Z,94.57
2022-12-25T19:43:10.549Z,29.90
2022-12-25T19:45:37.881Z,31.13
2022-12-25T19:48:06.866Z,28.37
2022-12-25T19:50:34.096Z,27.63
2022-12-25T19:53:01.413Z,29.23
2022-12-25T19:55:31.415Z,30.50
2022-12-25T19:57:58.687Z,30.70
2022-12-25T20:00:25.956Z,34.83
2022-12-25T20:02:53.430Z,31.03
2022-12-25T20:05:22.055Z,35.77
2022-12-25T20:07:49.440Z,33.20
2022-12-25T20:10:16.869Z,31.10
2022-12-25T20:12:44.226Z,32.17
2022-12-25T20:15:11.505Z,32.00
2022-12-25T20:17:38.777Z,29.13
2022-12-25T20:20:06.932Z,29.90
2022-12-25T20:22:35.874Z,29.27
2022-12-25T20:25:03.531Z,29.63
2022-12-25T20:27:30.796Z,27.63
2022-12-25T20:29:58.059Z,29.47
2022-12-25T20:32:25.469Z,27.70
2022-12-25T20:34:52.849Z,26.40
2022-12-25T20:37:20.156Z,27.30
2022-12-25T20:39:48.797Z,27.00
2022-12-25T20:42:16.133Z,26.50
2022-12-25T20:44:43.318Z,24.93
2022-12-25T20:47:12.535Z,53.67
2022-12-25T20:49:39.827Z,26.80
2022-12-25T20:52:07.316Z,26.53
2022-12-25T20:54:34.515Z,24.70
2022-12-25T20:57:03.293Z,25.60
2022-12-25T20:59:36.957Z,23.47
2022-12-25T21:02:05.068Z,26.67
2022-12-25T21:04:32.493Z,28.97
2022-12-25T21:06:59.781Z,26.60
2022-12-25T21:09:27.002Z,26.93
2022-12-25T21:11:54.455Z,26.77
2022-12-25T21:14:23.038Z,27.70
2022-12-25T21:16:50.393Z,29.80
2022-12-25T21:19:17.829Z,27.23
2022-12-25T21:21:45.110Z,28.33
2022-12-25T21:24:12.338Z,27.57
2022-12-25T21:26:44.413Z,25.40
2022-12-25T21:29:16.731Z,25.77
2022-12-25T21:31:45.475Z,23.23
2022-12-25T21:34:12.803Z,24.97
2022-12-25T21:36:40.014Z,24.73
2022-12-25T21:39:08.419Z,23.20
2022-12-25T21:41:38.275Z,24.33
2022-12-25T21:44:06.632Z,24.50
2022-12-25T21:46:34.304Z,24.27
2022-12-25T21:49:03.119Z,27.20
2022-12-25T21:51:32.248Z,24.77
2022-12-25T21:54:00.177Z,23.10
2022-12-25T21:56:28.542Z,25.20
2022-12-25T21:58:55.821Z,25.20
2022-12-25T22:01:25.650Z,36.27
2022-12-25T22:03:53.099Z,31.70
2022-12-25T22:06:22.028Z,25.67
2022-12-25T22:08:49.483Z,25.17
2022-12-25T22:11:17.122Z,23.53
2022-12-25T22:13:44.340Z,25.30
2022-12-25T22:16:11.659Z,24.27
2022-12-25T22:18:39.036Z,23.60
2022-12-25T22:21:06.364Z,21.70
2022-12-25T22:23:34.991Z,21.30
2022-12-25T22:26:04.778Z,23.63
2022-12-25T22:28:32.073Z,27.10
2022-12-25T22:31:02.860Z,25.43
2022-12-25T22:33:30.812Z,23.77
2022-12-25T22:36:01.656Z,24.27
2022-12-25T22:38:29.088Z,19.30
2022-12-25T22:40:57.852Z,18.67
2022-12-25T22:43:37.091Z,17.17
2022-12-25T22:46:12.448Z,18.60
2022-12-25T22:48:39.740Z,19.13
2022-12-25T22:51:07.107Z,20.43
2022-12-25T22:53:34.527Z,19.97
2022-12-25T22:56:03.387Z,19.70
2022-12-25T22:58:30.568Z,20.20
2022-12-25T23:00:57.883Z,20.07
2022-12-25T23:03:25.295Z,22.73
2022-12-25T23:05:56.234Z,22.70
2022-12-25T23:08:24.130Z,23.40
2022-12-25T23:10:51.345Z,23.10
2022-12-25T23:13:20.155Z,42.07
2022-12-25T23:15:47.435Z,24.20
2022-12-25T23:18:14.775Z,25.07
2022-12-25T23:20:42.034Z,23.30
2022-12-25T23:23:14.088Z,25.37
2022-12-25T23:25:41.385Z,26.20
2022-12-25T23:28:08.585Z,26.73
2022-12-25T23:30:40.542Z,25.03
2022-12-25T23:33:07.982Z,26.97
2022-12-25T23:35:35.227Z,29.80
2022-12-25T23:38:02.450Z,27.57
2022-12-25T23:40:29.662Z,27.47
2022-12-25T23:42:58.391Z,27.43
2022-12-25T23:45:25.718Z,27.17
2022-12-25T23:47:54.341Z,25.63
2022-12-25T23:50:21.703Z,27.50
2022-12-25T23:52:48.899Z,28.07
2022-12-25T23:55:16.324Z,27.50
2022-12-25T23:57:43.553Z,27.70
